Benton, Maine
Current Conditions -  °F | °C
As of 10:15 AM on Saturday 25 Oct 2014 (Local Time) from KWVL Reporting Station
Broken Clouds Broken Clouds  
Wind Chill: 54°   Ceiling: 5000
Heat Index: 54°   Visibility: 10mi
Dew Point: 39°   Wind: 3mph
Humidity: 58%   Direction: 230°SW
Pressure: 29.63"   Gusts: NA
Location:  44.5354°N, 69.581°W
Report Text: KWVL 251415Z 23003KT 10SM BKN050 12/04 A2963 RMK AO1
Loading
Personal Weather Stations






























Interactive Weather Map
Tropical Storm Tracking
New forecast layout! Learn more

10-Day Weather Forecast

Advertisements
Track Severe Weather on mobile